Time;durP1;ratioP1;P1;durP2;ratioP2;P2;SDS_P1;SDS_P2;PMS_P1;PMS_P2;Temp;Humidity;BMP_temperature;BMP_pressure;BME280_temperature;BME280_humidity;BME280_pressure;Samples;Min_cycle;Max_cycle;Signal;HPM_P1;HPM_P2
2023/09/28 00:00:35;;;;;;;3.28;1.23;;;;;;;;;;4982556;28;20049;-66
2023/09/28 00:02:47;;;;;;;8.80;0.90;;;;;;;;;;4990112;28;20298;-65
2023/09/28 00:05:15;;;;;;;2.50;0.60;;;;;;;;;;4989030;28;20066;-65
2023/09/28 00:07:42;;;;;;;6.72;0.80;;;;;;;;;;4977523;28;20182;-67
2023/09/28 00:10:11;;;;;;;4.95;0.77;;;;;;;;;;4978060;28;20430;-66
2023/09/28 00:12:41;;;;;;;4.65;0.52;;;;;;;;;;4975304;28;20061;-66
2023/09/28 00:15:09;;;;;;;2.63;0.70;;;;;;;;;;4977870;28;20038;-67
2023/09/28 00:17:35;;;;;;;4.45;0.70;;;;;;;;;;4975882;28;20042;-66
2023/09/28 00:20:06;;;;;;;3.05;0.90;;;;;;;;;;4978496;28;20183;-67
2023/09/28 00:22:32;;;;;;;2.60;0.63;;;;;;;;;;4976369;28;20403;-66
2023/09/28 00:24:59;;;;;;;5.90;0.90;;;;;;;;;;4975207;28;20118;-66
2023/09/28 00:27:26;;;;;;;6.00;0.90;;;;;;;;;;4977024;28;20254;-66
2023/09/28 00:29:53;;;;;;;4.93;0.73;;;;;;;;;;4977241;28;20050;-66
2023/09/28 00:32:20;;;;;;;4.30;0.68;;;;;;;;;;4977221;28;20068;-67
2023/09/28 00:34:48;;;;;;;5.57;0.70;;;;;;;;;;4976732;28;20043;-66
2023/09/28 00:37:15;;;;;;;2.30;0.60;;;;;;;;;;4977747;28;20061;-65
2023/09/28 00:39:42;;;;;;;8.80;0.85;;;;;;;;;;4977035;28;20064;-66
2023/09/28 00:42:08;;;;;;;3.80;0.75;;;;;;;;;;4978529;28;20053;-66
2023/09/28 00:44:35;;;;;;;3.00;0.60;;;;;;;;;;4976830;28;21393;-65
2023/09/28 00:47:02;;;;;;;2.22;0.60;;;;;;;;;;4977820;28;20463;-66
2023/09/28 00:49:29;;;;;;;1.92;0.52;;;;;;;;;;4976932;28;20030;-66
2023/09/28 00:51:56;;;;;;;2.53;0.68;;;;;;;;;;4975124;28;20129;-66
2023/09/28 00:54:23;;;;;;;2.80;0.50;;;;;;;;;;4982495;28;20038;-66
2023/09/28 00:56:50;;;;;;;5.05;0.50;;;;;;;;;;4976647;28;20652;-68
2023/09/28 00:59:18;;;;;;;2.40;0.63;;;;;;;;;;4976599;28;20391;-66
2023/09/28 01:01:47;;;;;;;5.50;0.90;;;;;;;;;;4976490;28;21420;-65
2023/09/28 01:04:14;;;;;;;6.28;0.80;;;;;;;;;;4976203;28;20430;-68
2023/09/28 01:06:41;;;;;;;6.32;0.80;;;;;;;;;;5005583;28;20035;-65
2023/09/28 01:09:09;;;;;;;2.83;0.60;;;;;;;;;;4975584;28;20058;-66
2023/09/28 01:11:40;;;;;;;6.45;0.90;;;;;;;;;;4974568;28;20232;-67
2023/09/28 01:14:07;;;;;;;6.47;0.90;;;;;;;;;;4976409;28;20601;-65
2023/09/28 01:16:34;;;;;;;1.80;0.50;;;;;;;;;;4974839;28;20050;-66
2023/09/28 01:19:00;;;;;;;4.70;0.65;;;;;;;;;;4977756;28;20046;-62
2023/09/28 01:21:31;;;;;;;2.20;0.70;;;;;;;;;;4978295;28;20038;-64
2023/09/28 01:23:57;;;;;;;3.15;0.70;;;;;;;;;;4977338;28;20050;-67
2023/09/28 01:26:30;;;;;;;4.40;1.05;;;;;;;;;;4976190;28;20121;-65
2023/09/28 01:28:57;;;;;;;6.82;0.98;;;;;;;;;;4977380;28;20140;-64
2023/09/28 01:31:24;;;;;;;3.83;1.00;;;;;;;;;;4977182;28;20066;-66
2023/09/28 01:33:51;;;;;;;3.42;0.90;;;;;;;;;;4976433;28;20427;-65
2023/09/28 01:36:17;;;;;;;4.32;0.90;;;;;;;;;;4977094;28;20149;-64
2023/09/28 01:38:48;;;;;;;4.15;0.82;;;;;;;;;;4974661;28;20043;-66
2023/09/28 01:41:15;;;;;;;5.78;1.00;;;;;;;;;;4978307;28;20045;-67
2023/09/28 01:43:42;;;;;;;5.03;1.23;;;;;;;;;;4978014;28;20046;-66
2023/09/28 01:46:10;;;;;;;3.17;0.90;;;;;;;;;;4978086;28;20195;-63
2023/09/28 01:48:36;;;;;;;4.75;1.02;;;;;;;;;;4977219;28;20034;-61
2023/09/28 01:51:03;;;;;;;4.93;0.98;;;;;;;;;;4978165;28;20038;-67
2023/09/28 01:53:30;;;;;;;4.68;1.20;;;;;;;;;;4976111;28;20403;-63
2023/09/28 01:55:59;;;;;;;10.07;1.13;;;;;;;;;;4978101;28;20103;-67
2023/09/28 01:58:26;;;;;;;4.75;1.15;;;;;;;;;;4977132;28;20080;-66
2023/09/28 02:00:53;;;;;;;5.18;2.05;;;;;;;;;;4976552;28;20030;-67
2023/09/28 02:03:21;;;;;;;8.55;2.38;;;;;;;;;;4976901;28;20510;-65
2023/09/28 02:05:49;;;;;;;4.50;1.25;;;;;;;;;;4975816;28;20030;-64
2023/09/28 02:08:16;;;;;;;4.78;1.58;;;;;;;;;;4976266;28;20046;-64
2023/09/28 02:10:43;;;;;;;4.85;1.40;;;;;;;;;;4978220;28;20069;-68
2023/09/28 02:13:09;;;;;;;4.40;1.42;;;;;;;;;;4977297;28;20061;-67
2023/09/28 02:15:37;;;;;;;4.80;1.40;;;;;;;;;;4975608;28;20042;-65
2023/09/28 02:18:04;;;;;;;4.93;1.10;;;;;;;;;;4979802;28;20241;-67
2023/09/28 02:20:31;;;;;;;6.82;1.17;;;;;;;;;;4980302;28;20073;-66
2023/09/28 02:22:57;;;;;;;6.47;1.27;;;;;;;;;;5012816;28;20042;-69
2023/09/28 02:25:26;;;;;;;13.20;1.52;;;;;;;;;;4997609;28;20053;-60
2023/09/28 02:27:53;;;;;;;4.40;1.48;;;;;;;;;;4983427;28;20066;-65
2023/09/28 02:30:22;;;;;;;8.63;4.00;;;;;;;;;;4981834;28;21403;-66
2023/09/28 02:32:55;;;;;;;19.00;7.00;;;;;;;;;;4979516;28;20049;-66
2023/09/28 02:35:22;;;;;;;16.05;6.60;;;;;;;;;;4984186;28;20041;-68
2023/09/28 02:37:51;;;;;;;12.20;3.55;;;;;;;;;;4982690;28;20120;-66
2023/09/28 02:40:21;;;;;;;6.43;2.03;;;;;;;;;;4982398;28;20073;-67
2023/09/28 02:42:48;;;;;;;9.98;3.67;;;;;;;;;;4987103;28;20157;-66
2023/09/28 02:45:15;;;;;;;8.57;2.03;;;;;;;;;;4984934;28;20538;-66
2023/09/28 02:47:43;;;;;;;6.47;2.17;;;;;;;;;;5008036;28;20049;-65
2023/09/28 02:50:10;;;;;;;5.03;1.33;;;;;;;;;;4984888;28;20309;-66
2023/09/28 02:52:39;;;;;;;5.00;1.70;;;;;;;;;;4987062;28;20403;-67
2023/09/28 02:55:06;;;;;;;4.30;1.40;;;;;;;;;;4988107;28;20045;-66
2023/09/28 02:57:34;;;;;;;9.23;2.63;;;;;;;;;;4985854;28;20494;-66
2023/09/28 03:00:11;;;;;;;10.65;4.18;;;;;;;;;;4996731;28;20707;-67
2023/09/28 03:02:38;;;;;;;12.80;4.60;;;;;;;;;;4979134;28;20049;-68
2023/09/28 03:05:07;;;;;;;15.95;7.13;;;;;;;;;;4978605;28;20534;-68
2023/09/28 03:07:34;;;;;;;11.65;4.38;;;;;;;;;;4980961;28;20096;-69
2023/09/28 03:10:00;;;;;;;10.98;2.67;;;;;;;;;;4979859;28;20038;-68
2023/09/28 03:12:27;;;;;;;9.20;3.40;;;;;;;;;;4980335;28;20052;-69
2023/09/28 03:14:53;;;;;;;13.10;4.20;;;;;;;;;;4979355;28;20077;-68
2023/09/28 03:17:20;;;;;;;9.45;2.90;;;;;;;;;;4981568;28;20049;-66
2023/09/28 03:19:47;;;;;;;6.30;2.20;;;;;;;;;;4980531;28;20148;-67
2023/09/28 03:22:14;;;;;;;7.18;1.63;;;;;;;;;;4973783;28;20050;-64
2023/09/28 03:24:41;;;;;;;7.15;2.30;;;;;;;;;;4976191;28;20097;-66
2023/09/28 03:27:08;;;;;;;5.97;1.73;;;;;;;;;;4980427;28;20046;-65
2023/09/28 03:29:36;;;;;;;6.30;1.70;;;;;;;;;;4977305;28;20058;-67
2023/09/28 03:32:02;;;;;;;5.22;1.52;;;;;;;;;;4987092;28;20094;-65
2023/09/28 03:34:29;;;;;;;6.88;1.90;;;;;;;;;;4993515;28;20089;-66
2023/09/28 03:36:56;;;;;;;9.02;1.90;;;;;;;;;;4979306;28;20034;-64
2023/09/28 03:39:23;;;;;;;8.95;1.80;;;;;;;;;;4978696;28;20052;-64
2023/09/28 03:41:49;;;;;;;6.15;1.83;;;;;;;;;;4978837;28;20152;-63
2023/09/28 03:44:16;;;;;;;7.05;2.42;;;;;;;;;;4978722;28;20525;-64
2023/09/28 03:46:43;;;;;;;7.90;2.15;;;;;;;;;;4977854;28;20073;-65
2023/09/28 03:49:09;;;;;;;7.38;2.13;;;;;;;;;;4979987;28;20093;-64
2023/09/28 03:51:36;;;;;;;5.60;2.00;;;;;;;;;;4976340;28;20049;-66
2023/09/28 03:54:02;;;;;;;5.18;1.80;;;;;;;;;;4977369;28;20054;-66
2023/09/28 03:56:29;;;;;;;6.97;1.83;;;;;;;;;;4977775;28;20026;-67
2023/09/28 03:58:56;;;;;;;8.73;1.70;;;;;;;;;;4986564;28;20045;-66
2023/09/28 04:01:23;;;;;;;6.57;1.60;;;;;;;;;;4977812;28;20094;-65
2023/09/28 04:03:50;;;;;;;6.10;1.50;;;;;;;;;;4979856;28;20085;-66
2023/09/28 04:06:16;;;;;;;6.00;1.55;;;;;;;;;;4979420;28;20684;-65
2023/09/28 04:08:43;;;;;;;11.25;2.15;;;;;;;;;;4974849;28;21357;-64
2023/09/28 04:11:10;;;;;;;7.55;1.70;;;;;;;;;;5002053;28;20062;-64
2023/09/28 04:13:37;;;;;;;5.68;1.50;;;;;;;;;;4977104;28;20070;-64
2023/09/28 04:16:04;;;;;;;10.88;1.67;;;;;;;;;;4978947;28;20081;-65
2023/09/28 04:18:30;;;;;;;11.25;2.13;;;;;;;;;;4977670;28;20156;-66
2023/09/28 04:20:57;;;;;;;13.38;2.03;;;;;;;;;;4979690;28;20158;-65
2023/09/28 04:23:23;;;;;;;7.43;1.50;;;;;;;;;;4978133;28;20043;-64
2023/09/28 04:25:50;;;;;;;11.65;1.70;;;;;;;;;;4978285;28;20053;-65
2023/09/28 04:28:17;;;;;;;5.53;1.50;;;;;;;;;;4979151;28;20054;-63
2023/09/28 04:30:44;;;;;;;7.65;1.58;;;;;;;;;;4979444;28;20612;-63
2023/09/28 04:33:11;;;;;;;6.53;1.75;;;;;;;;;;5008818;28;20589;-65
2023/09/28 04:35:37;;;;;;;6.35;1.60;;;;;;;;;;4978502;28;20484;-64
2023/09/28 04:38:04;;;;;;;5.05;1.50;;;;;;;;;;4980707;28;20082;-64
2023/09/28 04:40:31;;;;;;;5.07;1.70;;;;;;;;;;4978048;28;20400;-65
2023/09/28 04:42:57;;;;;;;6.40;1.58;;;;;;;;;;4976824;28;20038;-63
2023/09/28 04:45:24;;;;;;;4.22;1.42;;;;;;;;;;4978110;28;20034;-65
2023/09/28 04:47:51;;;;;;;7.25;1.77;;;;;;;;;;4977334;28;20109;-65
2023/09/28 04:50:17;;;;;;;4.20;1.40;;;;;;;;;;4978852;28;20041;-64
2023/09/28 04:52:44;;;;;;;9.35;1.55;;;;;;;;;;4976702;28;20042;-63
2023/09/28 04:55:11;;;;;;;4.78;1.35;;;;;;;;;;4975956;28;20116;-65
2023/09/28 04:57:38;;;;;;;7.88;1.52;;;;;;;;;;4977177;28;20054;-65
2023/09/28 05:00:06;;;;;;;7.03;1.63;;;;;;;;;;4978939;28;20054;-64
2023/09/28 05:02:33;;;;;;;4.60;1.48;;;;;;;;;;4976641;28;20216;-64
2023/09/28 05:05:00;;;;;;;4.97;1.20;;;;;;;;;;4978081;28;20641;-65
2023/09/28 05:07:26;;;;;;;3.95;1.10;;;;;;;;;;4975756;28;20481;-64
2023/09/28 05:09:53;;;;;;;5.53;1.70;;;;;;;;;;4977591;28;20183;-64
2023/09/28 05:12:19;;;;;;;6.45;1.60;;;;;;;;;;4976640;28;20042;-65
2023/09/28 05:14:46;;;;;;;5.78;1.35;;;;;;;;;;4985686;28;20125;-63
2023/09/28 05:17:14;;;;;;;4.57;1.27;;;;;;;;;;4992116;28;20039;-62
2023/09/28 05:19:59;;;;;;;5.20;1.20;;;;;;;;;;5014095;28;20045;-63
2023/09/28 05:22:27;;;;;;;7.57;1.35;;;;;;;;;;5030493;28;20301;-63
2023/09/28 05:24:54;;;;;;;6.38;1.23;;;;;;;;;;5014428;28;20045;-63
2023/09/28 05:27:21;;;;;;;6.63;1.17;;;;;;;;;;5014101;28;20108;-64
2023/09/28 05:29:47;;;;;;;5.65;1.13;;;;;;;;;;5014323;28;20045;-64
2023/09/28 05:32:14;;;;;;;2.92;0.93;;;;;;;;;;5015060;28;20402;-64
2023/09/28 05:34:40;;;;;;;5.03;1.00;;;;;;;;;;5022269;28;20088;-64
2023/09/28 05:37:08;;;;;;;5.88;1.27;;;;;;;;;;5028206;28;20039;-64
2023/09/28 05:39:35;;;;;;;4.10;1.38;;;;;;;;;;5011400;28;20037;-64
2023/09/28 05:42:01;;;;;;;5.75;1.40;;;;;;;;;;5016095;28;20033;-64
2023/09/28 05:44:29;;;;;;;6.60;1.27;;;;;;;;;;5010945;28;20079;-62
2023/09/28 05:46:56;;;;;;;11.10;1.63;;;;;;;;;;5014521;28;20043;-65
2023/09/28 05:49:22;;;;;;;5.32;1.30;;;;;;;;;;5031014;28;20091;-63
2023/09/28 05:51:49;;;;;;;6.50;1.20;;;;;;;;;;4988849;28;20042;-65
2023/09/28 05:54:16;;;;;;;4.53;1.15;;;;;;;;;;4981802;28;20059;-65
2023/09/28 05:56:44;;;;;;;5.80;1.17;;;;;;;;;;4982844;28;20101;-66
2023/09/28 05:59:11;;;;;;;5.80;1.17;;;;;;;;;;4997164;28;20497;-66
2023/09/28 06:01:38;;;;;;;5.50;1.08;;;;;;;;;;4981480;28;20467;-68
2023/09/28 06:04:05;;;;;;;3.55;0.93;;;;;;;;;;4980547;28;20038;-65
2023/09/28 06:06:32;;;;;;;2.90;0.90;;;;;;;;;;4980388;28;20050;-65
2023/09/28 06:08:59;;;;;;;4.32;1.13;;;;;;;;;;4982731;28;20068;-65
2023/09/28 06:11:25;;;;;;;4.22;0.98;;;;;;;;;;4981536;28;20034;-65
2023/09/28 06:13:52;;;;;;;3.40;0.82;;;;;;;;;;4981615;28;20455;-66
2023/09/28 06:16:19;;;;;;;4.53;0.90;;;;;;;;;;4981054;28;20038;-66
2023/09/28 06:18:46;;;;;;;4.07;0.90;;;;;;;;;;4979617;28;20498;-66
2023/09/28 06:21:12;;;;;;;4.13;0.80;;;;;;;;;;4980156;28;20065;-65
2023/09/28 06:23:39;;;;;;;4.13;0.90;;;;;;;;;;4974572;28;20042;-65
2023/09/28 06:26:06;;;;;;;5.70;1.10;;;;;;;;;;5007756;28;20616;-65
2023/09/28 06:28:33;;;;;;;3.33;0.90;;;;;;;;;;4978702;28;20042;-64
2023/09/28 06:31:01;;;;;;;2.47;0.85;;;;;;;;;;4980852;28;20537;-65
2023/09/28 06:33:28;;;;;;;8.55;1.00;;;;;;;;;;4979439;28;20502;-65
2023/09/28 06:35:54;;;;;;;5.03;0.80;;;;;;;;;;4980183;28;20078;-66
2023/09/28 06:38:22;;;;;;;4.45;0.80;;;;;;;;;;4980976;28;20066;-66
2023/09/28 06:40:49;;;;;;;3.95;1.00;;;;;;;;;;4978306;28;20046;-65
2023/09/28 06:43:16;;;;;;;2.95;0.82;;;;;;;;;;4979467;28;20945;-65
2023/09/28 06:45:43;;;;;;;2.17;0.70;;;;;;;;;;4979870;28;21278;-66
2023/09/28 06:48:10;;;;;;;3.25;0.90;;;;;;;;;;4980266;28;20138;-67
2023/09/28 06:50:39;;;;;;;13.10;1.10;;;;;;;;;;4978962;28;20077;-67
2023/09/28 06:53:06;;;;;;;4.53;1.15;;;;;;;;;;4978500;28;20469;-65
2023/09/28 06:55:33;;;;;;;5.57;1.17;;;;;;;;;;4980118;28;20145;-66
2023/09/28 06:57:59;;;;;;;6.72;1.02;;;;;;;;;;4979408;28;20079;-66
2023/09/28 07:00:26;;;;;;;4.70;1.10;;;;;;;;;;4979864;28;21479;-64
2023/09/28 07:02:55;;;;;;;6.82;1.20;;;;;;;;;;4978267;28;20026;-64
2023/09/28 07:05:22;;;;;;;4.78;1.08;;;;;;;;;;4979285;28;20547;-65
2023/09/28 07:07:49;;;;;;;7.50;1.20;;;;;;;;;;4980199;28;20034;-65
2023/09/28 07:10:17;;;;;;;3.72;0.93;;;;;;;;;;4995311;28;20476;-65
2023/09/28 07:12:44;;;;;;;5.93;1.00;;;;;;;;;;4979409;28;21352;-65
2023/09/28 07:15:11;;;;;;;4.03;1.00;;;;;;;;;;4977056;28;20491;-64
2023/09/28 07:17:37;;;;;;;2.90;1.00;;;;;;;;;;4979018;28;20103;-65
2023/09/28 07:20:08;;;;;;;4.50;1.00;;;;;;;;;;4980311;28;20080;-65
2023/09/28 07:22:34;;;;;;;4.78;0.88;;;;;;;;;;4979119;28;20092;-64
2023/09/28 07:25:01;;;;;;;3.13;0.90;;;;;;;;;;4980685;28;20509;-64
2023/09/28 07:27:32;;;;;;;3.70;0.90;;;;;;;;;;4981118;28;20034;-65
2023/09/28 07:30:00;;;;;;;3.38;0.95;;;;;;;;;;4980121;28;20485;-61
2023/09/28 07:32:29;;;;;;;6.22;1.20;;;;;;;;;;4979467;28;20088;-64
2023/09/28 07:34:56;;;;;;;3.67;1.00;;;;;;;;;;4979811;28;20100;-62
2023/09/28 07:37:24;;;;;;;9.98;1.20;;;;;;;;;;4980873;28;20030;-65
2023/09/28 07:39:51;;;;;;;3.30;0.88;;;;;;;;;;4994674;28;20522;-64
2023/09/28 07:42:18;;;;;;;2.63;0.98;;;;;;;;;;4978465;28;20133;-63
2023/09/28 07:44:44;;;;;;;2.22;0.77;;;;;;;;;;4978728;28;20041;-62
2023/09/28 07:47:11;;;;;;;4.03;1.00;;;;;;;;;;4978848;28;20039;-62
2023/09/28 07:49:37;;;;;;;3.42;0.82;;;;;;;;;;4978337;28;20050;-63
2023/09/28 07:52:08;;;;;;;5.50;0.90;;;;;;;;;;4978865;28;20030;-63
2023/09/28 07:54:35;;;;;;;4.75;0.98;;;;;;;;;;4979213;28;21854;-63
2023/09/28 07:57:07;;;;;;;3.90;1.02;;;;;;;;;;4979826;28;20046;-62
2023/09/28 07:59:34;;;;;;;4.97;1.02;;;;;;;;;;4978298;28;20038;-62
2023/09/28 08:02:01;;;;;;;3.47;1.00;;;;;;;;;;4979856;28;20140;-63
2023/09/28 08:04:28;;;;;;;4.68;0.90;;;;;;;;;;4978208;28;20035;-64
2023/09/28 08:06:58;;;;;;;6.18;0.80;;;;;;;;;;4978366;28;20057;-64
2023/09/28 08:09:25;;;;;;;4.40;0.90;;;;;;;;;;4979446;28;20038;-64
2023/09/28 08:11:52;;;;;;;4.07;1.02;;;;;;;;;;4978727;28;20069;-64
2023/09/28 08:14:21;;;;;;;2.63;0.90;;;;;;;;;;4978695;28;20061;-64
2023/09/28 08:16:48;;;;;;;3.80;0.90;;;;;;;;;;4978337;28;20065;-64
2023/09/28 08:19:15;;;;;;;4.55;1.00;;;;;;;;;;4978907;28;20050;-65
2023/09/28 08:21:42;;;;;;;2.92;0.68;;;;;;;;;;4977695;28;20320;-64
2023/09/28 08:24:10;;;;;;;4.78;0.80;;;;;;;;;;4977791;28;20081;-63
2023/09/28 08:26:36;;;;;;;3.75;1.05;;;;;;;;;;4977948;28;20045;-63
2023/09/28 08:29:04;;;;;;;4.40;1.00;;;;;;;;;;4978164;28;20050;-64
2023/09/28 08:31:33;;;;;;;4.53;0.80;;;;;;;;;;4977471;28;20053;-62
2023/09/28 08:34:00;;;;;;;6.05;0.85;;;;;;;;;;4977199;28;20109;-64
2023/09/28 08:36:27;;;;;;;3.60;0.77;;;;;;;;;;4977208;28;20037;-63
2023/09/28 08:38:54;;;;;;;2.78;0.60;;;;;;;;;;4978298;28;20101;-63
2023/09/28 08:41:39;;;;;;;2.65;0.70;;;;;;;;;;4978228;28;20566;-64
2023/09/28 08:44:07;;;;;;;3.15;0.70;;;;;;;;;;4977860;28;20038;-64
2023/09/28 08:46:39;;;;;;;2.03;0.63;;;;;;;;;;4978936;28;20053;-64
2023/09/28 08:49:07;;;;;;;2.30;0.80;;;;;;;;;;4979258;28;20133;-65
2023/09/28 08:51:35;;;;;;;3.45;0.70;;;;;;;;;;4978543;28;20581;-64
2023/09/28 08:54:11;;;;;;;4.28;0.85;;;;;;;;;;4976863;28;20042;-64
2023/09/28 08:56:41;;;;;;;2.83;0.70;;;;;;;;;;4978065;28;21576;-64
2023/09/28 08:59:09;;;;;;;3.83;0.80;;;;;;;;;;4977377;28;20144;-64
2023/09/28 09:01:36;;;;;;;2.42;0.77;;;;;;;;;;4978954;28;20166;-64
2023/09/28 09:04:03;;;;;;;3.22;0.90;;;;;;;;;;4979755;28;20038;-63
2023/09/28 09:06:31;;;;;;;1.80;0.63;;;;;;;;;;4977880;28;20049;-64
2023/09/28 09:09:01;;;;;;;2.53;0.70;;;;;;;;;;4979864;28;20614;-64
2023/09/28 09:11:31;;;;;;;1.90;0.60;;;;;;;;;;4980045;28;20039;-63
2023/09/28 09:13:58;;;;;;;4.15;0.70;;;;;;;;;;4983768;28;20517;-64
2023/09/28 09:16:26;;;;;;;6.10;0.70;;;;;;;;;;4977116;28;20045;-63
2023/09/28 09:18:53;;;;;;;2.88;0.70;;;;;;;;;;4978041;28;20037;-65
2023/09/28 09:21:21;;;;;;;2.10;0.70;;;;;;;;;;5007852;28;20034;-63
2023/09/28 09:24:19;;;;;;;3.42;0.68;;;;;;;;;;4978490;28;20313;-66
2023/09/28 09:26:47;;;;;;;3.30;0.60;;;;;;;;;;4983400;28;20184;-65
2023/09/28 09:29:14;;;;;;;3.35;0.65;;;;;;;;;;4981048;28;20092;-65
2023/09/28 09:31:42;;;;;;;2.58;0.70;;;;;;;;;;4979758;28;20043;-64
2023/09/28 09:34:12;;;;;;;2.20;0.60;;;;;;;;;;4996110;28;20173;-65
2023/09/28 09:36:41;;;;;;;3.67;0.70;;;;;;;;;;4979388;28;20054;-63
2023/09/28 09:39:08;;;;;;;1.95;0.60;;;;;;;;;;4980966;28;21463;-65
2023/09/28 09:41:45;;;;;;;1.60;0.60;;;;;;;;;;4981473;28;20043;-64
2023/09/28 09:44:12;;;;;;;1.58;0.52;;;;;;;;;;4981212;28;20049;-64
2023/09/28 09:46:38;;;;;;;1.45;0.50;;;;;;;;;;4980304;28;20069;-65
2023/09/28 09:49:07;;;;;;;2.00;0.60;;;;;;;;;;4980980;28;20675;-65
2023/09/28 09:51:34;;;;;;;1.60;0.50;;;;;;;;;;4980994;28;20141;-63
2023/09/28 09:54:01;;;;;;;1.55;0.50;;;;;;;;;;4995600;28;20046;-63
2023/09/28 09:56:28;;;;;;;2.42;0.50;;;;;;;;;;4980982;28;20371;-65
2023/09/28 09:58:56;;;;;;;2.00;0.65;;;;;;;;;;4981418;28;20062;-64
2023/09/28 10:01:23;;;;;;;2.10;0.60;;;;;;;;;;4983562;28;20058;-66
2023/09/28 10:03:53;;;;;;;3.58;0.60;;;;;;;;;;4982859;28;20564;-64
2023/09/28 10:06:21;;;;;;;2.75;0.70;;;;;;;;;;4981004;28;20073;-64
2023/09/28 10:08:49;;;;;;;2.60;0.80;;;;;;;;;;4984193;28;20030;-64
2023/09/28 10:11:16;;;;;;;2.88;0.80;;;;;;;;;;4982470;28;20108;-62
2023/09/28 10:13:43;;;;;;;6.15;0.88;;;;;;;;;;4981770;28;20061;-64
2023/09/28 10:16:15;;;;;;;3.22;0.70;;;;;;;;;;4983174;28;20495;-63
2023/09/28 10:18:46;;;;;;;2.72;0.90;;;;;;;;;;4982687;28;20466;-62
2023/09/28 10:21:14;;;;;;;2.58;0.88;;;;;;;;;;4981680;28;20042;-62
2023/09/28 10:24:08;;;;;;;2.75;0.80;;;;;;;;;;5000235;28;20037;-63
2023/09/28 10:26:35;;;;;;;3.97;0.85;;;;;;;;;;5000328;28;20486;-63
2023/09/28 10:29:06;;;;;;;3.22;0.80;;;;;;;;;;5001058;28;20050;-60
2023/09/28 10:31:39;;;;;;;2.58;0.95;;;;;;;;;;5016549;28;20108;-63
2023/09/28 10:34:07;;;;;;;3.08;0.90;;;;;;;;;;5000109;28;20044;-63
2023/09/28 10:36:34;;;;;;;6.95;0.90;;;;;;;;;;4999705;28;20034;-63
2023/09/28 10:39:14;;;;;;;2.75;0.88;;;;;;;;;;5000338;28;20088;-62
2023/09/28 10:41:51;;;;;;;2.38;0.80;;;;;;;;;;4999646;28;20041;-63
2023/09/28 10:44:21;;;;;;;3.53;1.00;;;;;;;;;;5001168;28;20061;-62
2023/09/28 10:46:51;;;;;;;2.90;0.90;;;;;;;;;;5014650;28;20143;-62
2023/09/28 10:49:28;;;;;;;3.30;0.90;;;;;;;;;;5000833;28;20139;-63
2023/09/28 10:51:56;;;;;;;5.55;0.80;;;;;;;;;;4998776;28;20534;-63
2023/09/28 10:54:25;;;;;;;2.15;0.70;;;;;;;;;;4999220;28;20481;-64
2023/09/28 10:56:52;;;;;;;2.70;0.70;;;;;;;;;;5000706;28;20449;-65
2023/09/28 10:59:19;;;;;;;4.13;0.90;;;;;;;;;;5000489;28;20057;-64
2023/09/28 11:01:46;;;;;;;2.50;0.70;;;;;;;;;;4996671;28;20066;-66
2023/09/28 11:04:13;;;;;;;2.83;0.85;;;;;;;;;;4980816;28;20069;-64
2023/09/28 11:06:43;;;;;;;2.97;0.77;;;;;;;;;;4979430;28;20406;-63
2023/09/28 11:09:12;;;;;;;5.00;1.08;;;;;;;;;;4979964;28;20042;-63
2023/09/28 11:11:38;;;;;;;2.83;0.80;;;;;;;;;;4978418;28;20045;-62
2023/09/28 11:14:05;;;;;;;7.38;0.90;;;;;;;;;;4982666;28;20526;-62
2023/09/28 11:16:35;;;;;;;2.65;0.90;;;;;;;;;;4979054;28;20038;-63
2023/09/28 11:19:03;;;;;;;2.50;0.80;;;;;;;;;;4978994;28;20041;-63
2023/09/28 11:21:30;;;;;;;5.90;0.90;;;;;;;;;;4986546;28;20049;-65
2023/09/28 11:23:57;;;;;;;4.38;0.95;;;;;;;;;;5007120;28;20050;-66
2023/09/28 11:26:24;;;;;;;4.63;0.90;;;;;;;;;;5009096;28;20173;-64
2023/09/28 11:28:51;;;;;;;6.90;0.88;;;;;;;;;;4979637;28;20495;-64
2023/09/28 11:31:18;;;;;;;3.95;0.90;;;;;;;;;;4977535;28;20118;-62
2023/09/28 11:33:46;;;;;;;2.97;0.70;;;;;;;;;;4979080;28;20050;-62
2023/09/28 11:36:14;;;;;;;4.00;0.90;;;;;;;;;;4980191;28;20034;-65
2023/09/28 11:38:41;;;;;;;7.38;1.10;;;;;;;;;;4972181;28;20125;-65
2023/09/28 11:41:08;;;;;;;3.40;1.00;;;;;;;;;;4978444;28;20037;-63
2023/09/28 11:43:56;;;;;;;2.92;0.73;;;;;;;;;;4972359;28;20706;-66
2023/09/28 11:46:32;;;;;;;2.95;0.90;;;;;;;;;;4978343;28;20149;-65
2023/09/28 11:49:04;;;;;;;2.17;0.80;;;;;;;;;;4993740;28;20050;-62
2023/09/28 11:51:32;;;;;;;4.18;0.90;;;;;;;;;;5009245;28;20116;-65
2023/09/28 11:53:59;;;;;;;2.90;0.80;;;;;;;;;;4978880;28;20084;-64
2023/09/28 11:56:26;;;;;;;2.40;0.80;;;;;;;;;;4977007;28;20030;-64
2023/09/28 11:58:53;;;;;;;2.53;0.70;;;;;;;;;;4993486;28;20038;-62
2023/09/28 12:01:20;;;;;;;3.50;0.60;;;;;;;;;;4976640;28;20457;-63
2023/09/28 12:03:47;;;;;;;4.40;0.90;;;;;;;;;;4977316;28;20104;-64
2023/09/28 12:06:14;;;;;;;3.20;0.73;;;;;;;;;;4978862;28;20034;-65
2023/09/28 12:08:43;;;;;;;2.22;0.70;;;;;;;;;;4977079;28;20046;-62
2023/09/28 12:11:09;;;;;;;2.10;0.60;;;;;;;;;;4977444;28;20057;-62
2023/09/28 12:13:36;;;;;;;3.47;0.70;;;;;;;;;;4978443;28;20072;-62
2023/09/28 12:16:04;;;;;;;4.47;0.77;;;;;;;;;;4977570;28;20046;-63
2023/09/28 12:18:30;;;;;;;2.85;1.10;;;;;;;;;;4977746;28;20053;-64
2023/09/28 12:20:57;;;;;;;5.07;1.10;;;;;;;;;;4978832;28;20616;-64
2023/09/28 12:23:25;;;;;;;5.30;1.27;;;;;;;;;;5011404;28;20038;-63
2023/09/28 12:25:52;;;;;;;2.60;0.90;;;;;;;;;;4980704;28;20038;-65
2023/09/28 12:28:19;;;;;;;3.63;0.90;;;;;;;;;;4976957;28;20483;-66
2023/09/28 12:30:45;;;;;;;3.95;1.15;;;;;;;;;;4978201;28;20038;-65
2023/09/28 12:33:12;;;;;;;2.92;1.00;;;;;;;;;;4977551;28;20110;-63
2023/09/28 12:35:39;;;;;;;2.38;0.80;;;;;;;;;;4978304;28;20520;-66
2023/09/28 12:38:07;;;;;;;4.22;0.80;;;;;;;;;;4977099;28;20047;-64
2023/09/28 12:40:35;;;;;;;3.55;0.93;;;;;;;;;;4978039;28;20030;-62
2023/09/28 12:43:04;;;;;;;4.55;0.90;;;;;;;;;;4977564;28;20042;-58
2023/09/28 12:45:34;;;;;;;3.67;0.90;;;;;;;;;;4977511;28;20034;-61
2023/09/28 12:48:02;;;;;;;3.17;1.00;;;;;;;;;;4978184;28;20069;-65
2023/09/28 12:50:29;;;;;;;5.97;1.02;;;;;;;;;;4977948;28;20073;-63
2023/09/28 12:52:56;;;;;;;3.53;0.80;;;;;;;;;;4993570;28;20069;-64
2023/09/28 12:55:22;;;;;;;2.72;0.75;;;;;;;;;;4978850;28;20112;-63
2023/09/28 12:57:52;;;;;;;4.10;0.90;;;;;;;;;;4975837;28;20107;-64
2023/09/28 13:00:20;;;;;;;2.92;0.88;;;;;;;;;;4979883;28;20792;-65
2023/09/28 13:02:47;;;;;;;4.13;0.80;;;;;;;;;;4976568;28;20537;-64
2023/09/28 13:05:14;;;;;;;3.40;1.00;;;;;;;;;;4979179;28;20526;-63
2023/09/28 13:07:41;;;;;;;4.30;1.15;;;;;;;;;;4977550;28;20042;-64
2023/09/28 13:10:11;;;;;;;3.80;1.08;;;;;;;;;;4977438;28;20699;-64
2023/09/28 13:12:38;;;;;;;3.35;0.90;;;;;;;;;;4977998;28;20053;-65
2023/09/28 13:15:07;;;;;;;5.10;0.90;;;;;;;;;;5011010;28;20042;-68
2023/09/28 13:17:34;;;;;;;6.63;0.98;;;;;;;;;;4976574;28;20045;-64
2023/09/28 13:20:00;;;;;;;4.18;0.90;;;;;;;;;;4977561;28;20483;-64
2023/09/28 13:22:28;;;;;;;5.20;0.98;;;;;;;;;;4975658;28;20046;-65
2023/09/28 13:24:55;;;;;;;3.35;1.00;;;;;;;;;;4976802;28;20483;-64
2023/09/28 13:27:23;;;;;;;5.00;1.08;;;;;;;;;;4975239;28;20030;-65
2023/09/28 13:29:51;;;;;;;3.80;0.93;;;;;;;;;;4977560;28;20081;-65
2023/09/28 13:32:18;;;;;;;4.88;0.88;;;;;;;;;;4978137;28;20380;-64
2023/09/28 13:34:44;;;;;;;5.60;1.13;;;;;;;;;;5002764;28;20473;-66
2023/09/28 13:37:12;;;;;;;5.72;1.10;;;;;;;;;;4995078;28;20383;-65
2023/09/28 13:39:39;;;;;;;4.20;0.88;;;;;;;;;;4976181;28;20035;-66
2023/09/28 13:42:06;;;;;;;4.38;0.80;;;;;;;;;;4978623;28;20044;-65
2023/09/28 13:44:33;;;;;;;2.05;0.70;;;;;;;;;;5007703;28;20374;-66
2023/09/28 13:47:20;;;;;;;8.85;1.13;;;;;;;;;;4952598;28;20043;-63
2023/09/28 13:49:49;;;;;;;2.78;0.90;;;;;;;;;;4936889;28;20481;-64
2023/09/28 13:52:16;;;;;;;3.85;0.88;;;;;;;;;;4955061;28;21459;-65
2023/09/28 13:54:43;;;;;;;4.40;0.82;;;;;;;;;;4954677;28;20073;-67
2023/09/28 13:57:09;;;;;;;4.63;0.82;;;;;;;;;;4954048;28;20605;-64
2023/09/28 13:59:37;;;;;;;8.07;1.05;;;;;;;;;;4953764;28;20515;-64
2023/09/28 14:02:04;;;;;;;6.07;1.00;;;;;;;;;;4955604;28;20806;-65
2023/09/28 14:04:31;;;;;;;7.07;1.00;;;;;;;;;;4939318;28;20339;-65
2023/09/28 14:06:57;;;;;;;6.50;1.17;;;;;;;;;;4953248;28;20157;-66
2023/09/28 14:09:27;;;;;;;5.85;0.82;;;;;;;;;;4969670;28;20073;-64
2023/09/28 14:11:53;;;;;;;7.38;1.00;;;;;;;;;;4972101;28;20564;-64
2023/09/28 14:14:22;;;;;;;7.38;0.98;;;;;;;;;;4973413;28;20058;-64
2023/09/28 14:16:52;;;;;;;10.85;1.10;;;;;;;;;;4975987;28;20038;-65
2023/09/28 14:19:19;;;;;;;7.63;0.93;;;;;;;;;;4959510;28;20045;-67
2023/09/28 14:21:46;;;;;;;5.95;1.00;;;;;;;;;;4977387;28;20037;-63
2023/09/28 14:24:12;;;;;;;2.72;0.70;;;;;;;;;;4977729;28;20416;-65
2023/09/28 14:26:39;;;;;;;3.00;0.80;;;;;;;;;;4979942;28;20057;-65
2023/09/28 14:29:06;;;;;;;5.55;0.90;;;;;;;;;;4980561;28;21553;-63
2023/09/28 14:31:34;;;;;;;5.18;0.80;;;;;;;;;;4979649;28;20038;-65
2023/09/28 14:34:01;;;;;;;4.28;0.80;;;;;;;;;;4994897;28;20045;-63
2023/09/28 14:36:28;;;;;;;6.45;1.00;;;;;;;;;;4978054;28;20038;-64
2023/09/28 14:38:55;;;;;;;6.85;0.90;;;;;;;;;;4994561;28;20088;-65
2023/09/28 14:41:22;;;;;;;6.72;1.13;;;;;;;;;;4978660;28;20042;-65
2023/09/28 14:43:50;;;;;;;7.10;0.88;;;;;;;;;;4978216;28;20050;-64
2023/09/28 14:46:17;;;;;;;4.47;0.70;;;;;;;;;;4993423;28;20053;-64